Time;durP1;ratioP1;P1;durP2;ratioP2;P2;SDS_P1;SDS_P2;PMS_P1;PMS_P2;Temp;Humidity;BMP_temperature;BMP_pressure;BME280_temperature;BME280_humidity;BME280_pressure;Samples;Min_cycle;Max_cycle;Signal;HPM_P1;HPM_P2
2023/10/20 00:02:25;;;;;;;;;;;;;;;8.61;100.00;99349.94;4993773;28;923;-59
2023/10/20 00:04:52;;;;;;;;;;;;;;;8.52;100.00;99336.59;4993841;28;1140;-59
2023/10/20 00:07:21;;;;;;;;;;;;;;;8.47;100.00;99338.97;4993566;28;851;-59
2023/10/20 00:09:47;;;;;;;;;;;;;;;8.44;100.00;99335.06;4993936;28;882;-59
2023/10/20 00:12:13;;;;;;;;;;;;;;;8.34;100.00;99335.84;4993741;28;1890;-59
2023/10/20 00:14:40;;;;;;;;;;;;;;;8.25;100.00;99336.25;4993864;28;819;-59
2023/10/20 00:17:07;;;;;;;;;;;;;;;8.23;100.00;99329.59;4993933;28;864;-59
2023/10/20 00:19:34;;;;;;;;;;;;;;;8.26;100.00;99317.78;4993695;28;1175;-59
2023/10/20 00:21:59;;;;;;;;;;;;;;;8.34;100.00;99324.81;4993719;28;1276;-59
2023/10/20 00:24:26;;;;;;;;;;;;;;;8.36;100.00;99322.47;4993213;28;1416;-59
2023/10/20 00:26:53;;;;;;;;;;;;;;;8.34;100.00;99328.38;4993392;28;843;-59
2023/10/20 00:29:19;;;;;;;;;;;;;;;8.29;100.00;99326.03;4993386;28;1032;-59
2023/10/20 00:31:47;;;;;;;;;;;;;;;8.28;100.00;99315.41;4993293;28;1979;-59
2023/10/20 00:34:13;;;;;;;;;;;;;;;8.22;100.00;99320.56;4993246;28;873;-59
2023/10/20 00:36:40;;;;;;;;;;;;;;;8.20;100.00;99322.91;4993072;28;823;-59
2023/10/20 00:39:07;;;;;;;;;;;;;;;8.15;100.00;99307.59;4993192;28;866;-59
2023/10/20 00:41:35;;;;;;;;;;;;;;;8.14;100.00;99316.25;4993082;28;808;-59
2023/10/20 00:44:03;;;;;;;;;;;;;;;8.16;100.00;99311.91;4993109;28;846;-59
2023/10/20 00:46:30;;;;;;;;;;;;;;;8.21;100.00;99316.22;4975528;28;2024;-59
2023/10/20 00:48:57;;;;;;;;;;;;;;;8.19;100.00;99304.81;4975426;28;2007;-59
2023/10/20 00:51:27;;;;;;;;;;;;;;;8.24;100.00;99306.41;4992924;28;1957;-59
2023/10/20 00:53:55;;;;;;;;;;;;;;;8.21;100.00;99310.72;4992669;28;883;-59
2023/10/20 00:56:22;;;;;;;;;;;;;;;8.16;100.00;99306.41;4992886;28;808;-59
2023/10/20 00:58:49;;;;;;;;;;;;;;;8.10;100.00;99308.00;4992763;28;926;-59
2023/10/20 01:01:15;;;;;;;;;;;;;;;8.05;100.00;99316.66;4992906;28;807;-59
2023/10/20 01:03:42;;;;;;;;;;;;;;;8.05;100.00;99316.66;4992885;28;883;-59
2023/10/20 01:06:10;;;;;;;;;;;;;;;8.07;100.00;99308.78;4992890;28;890;-59
2023/10/20 01:08:37;;;;;;;;;;;;;;;8.14;100.00;99305.22;4992738;28;958;-59
2023/10/20 01:11:03;;;;;;;;;;;;;;;8.16;100.00;99303.66;4992557;28;1957;-59
2023/10/20 01:13:32;;;;;;;;;;;;;;;8.29;100.00;99304.00;4992867;28;1550;-59
2023/10/20 01:15:59;;;;;;;;;;;;;;;8.48;100.00;99308.28;4992855;28;819;-59
2023/10/20 01:18:26;;;;;;;;;;;;;;;8.61;100.00;99303.09;4992689;28;888;-59
2023/10/20 01:20:52;;;;;;;;;;;;;;;8.79;100.00;99301.06;4992654;28;1039;-59
2023/10/20 01:23:20;;;;;;;;;;;;;;;8.96;100.00;99298.56;4992258;28;1405;-59
2023/10/20 01:25:47;;;;;;;;;;;;;;;9.06;100.00;99306.00;4992705;28;937;-59
2023/10/20 01:28:16;;;;;;;;;;;;;;;9.17;100.00;99312.22;4992525;28;873;-59
2023/10/20 01:30:42;;;;;;;;;;;;;;;9.20;100.00;99305.91;4992370;28;1981;-59
2023/10/20 01:33:09;;;;;;;;;;;;;;;9.18;100.00;99313.00;4992511;28;851;-59
2023/10/20 01:35:36;;;;;;;;;;;;;;;9.12;100.00;99304.38;4992396;28;882;-59
2023/10/20 01:38:03;;;;;;;;;;;;;;;9.08;100.00;99306.38;4992371;28;824;-59
2023/10/20 01:40:30;;;;;;;;;;;;;;;8.91;100.00;99299.00;4992560;28;894;-59
2023/10/20 01:42:57;;;;;;;;;;;;;;;8.76;100.00;99298.31;4992437;28;819;-59
2023/10/20 01:45:23;;;;;;;;;;;;;;;8.66;100.00;99308.19;4992397;28;843;-59
2023/10/20 01:47:50;;;;;;;;;;;;;;;8.58;100.00;99296.44;4992250;28;947;-59
2023/10/20 01:50:16;;;;;;;;;;;;;;;8.51;100.00;99309.44;4992335;28;893;-59
2023/10/20 01:52:43;;;;;;;;;;;;;;;8.58;100.00;99306.69;4992215;28;1959;-59
2023/10/20 01:55:10;;;;;;;;;;;;;;;8.66;100.00;99310.16;4992509;28;812;-59
2023/10/20 01:57:36;;;;;;;;;;;;;;;8.71;100.00;99304.25;4992598;28;894;-59
2023/10/20 02:00:04;;;;;;;;;;;;;;;8.76;100.00;99304.59;4992329;28;872;-59
2023/10/20 02:02:31;;;;;;;;;;;;;;;8.82;100.00;99304.19;4992322;28;866;-59
2023/10/20 02:04:58;;;;;;;;;;;;;;;8.92;100.00;99303.34;4994422;28;892;-59
2023/10/20 02:07:24;;;;;;;;;;;;;;;9.14;100.00;99309.50;4996057;28;882;-59
2023/10/20 02:09:51;;;;;;;;;;;;;;;9.27;100.00;99298.75;4996311;28;812;-59
2023/10/20 02:12:19;;;;;;;;;;;;;;;9.36;100.00;99294.34;4978535;28;1890;-59
2023/10/20 02:14:45;;;;;;;;;;;;;;;9.45;100.00;99296.63;4995860;28;795;-59
2023/10/20 02:17:12;;;;;;;;;;;;;;;9.50;100.00;99298.97;4996000;28;840;-59
2023/10/20 02:19:38;;;;;;;;;;;;;;;9.58;100.00;99294.97;4978519;28;1328;-59
2023/10/20 02:22:04;;;;;;;;;;;;;;;9.68;100.00;99301.56;4996185;28;967;-59
2023/10/20 02:24:31;;;;;;;;;;;;;;;9.76;100.00;99307.81;4995594;28;1274;-59
2023/10/20 02:26:57;;;;;;;;;;;;;;;9.89;100.00;99308.84;4995707;28;1226;-59
2023/10/20 02:29:24;;;;;;;;;;;;;;;10.02;100.00;99298.84;4995491;28;859;-59
2023/10/20 02:31:51;;;;;;;;;;;;;;;10.05;100.00;99293.69;4995534;28;1997;-59
2023/10/20 02:34:18;;;;;;;;;;;;;;;10.06;100.00;99295.28;4977956;28;1351;-59
2023/10/20 02:36:44;;;;;;;;;;;;;;;10.04;100.00;99287.41;4995419;28;835;-60
2023/10/20 02:39:13;;;;;;;;;;;;;;;10.00;100.00;99276.38;4995463;28;842;-59
2023/10/20 02:41:40;;;;;;;;;;;;;;;9.90;100.00;99287.53;4995460;28;1178;-59
2023/10/20 02:44:07;;;;;;;;;;;;;;;9.82;100.00;99284.88;4977895;28;1198;-59
2023/10/20 02:46:33;;;;;;;;;;;;;;;9.82;100.00;99282.09;4995269;28;1280;-59
2023/10/20 02:49:00;;;;;;;;;;;;;;;9.82;100.00;99286.84;4995233;28;854;-59
2023/10/20 02:51:26;;;;;;;;;;;;;;;9.83;100.00;99299.44;4995138;28;1949;-59
2023/10/20 02:53:53;;;;;;;;;;;;;;;9.85;100.00;99307.31;4977709;28;1458;-59
2023/10/20 02:56:20;;;;;;;;;;;;;;;9.85;100.00;99304.56;4995100;28;819;-59
2023/10/20 02:58:47;;;;;;;;;;;;;;;9.75;100.00;99289.66;4995079;28;847;-59
2023/10/20 03:01:15;;;;;;;;;;;;;;;9.71;100.00;99286.94;4995021;28;835;-59
2023/10/20 03:03:43;;;;;;;;;;;;;;;9.75;100.00;99295.97;4995125;28;881;-59
2023/10/20 03:06:11;;;;;;;;;;;;;;;9.83;100.00;99285.63;4995092;28;1187;-59
2023/10/20 03:08:38;;;;;;;;;;;;;;;9.84;100.00;99286.44;4995032;28;850;-59
2023/10/20 03:11:08;;;;;;;;;;;;;;;9.76;100.00;99280.19;4994939;28;1887;-59
2023/10/20 03:13:35;;;;;;;;;;;;;;;9.71;100.00;99281.44;4994996;28;834;-59
2023/10/20 03:16:01;;;;;;;;;;;;;;;9.60;100.00;99284.28;4994125;28;988;-59
2023/10/20 03:18:28;;;;;;;;;;;;;;;9.53;100.00;99276.06;4994653;28;878;-59
2023/10/20 03:21:04;;;;;;;;;;;;;;;9.48;100.00;99281.25;4994618;28;890;-59
2023/10/20 03:23:30;;;;;;;;;;;;;;;9.46;100.00;99278.91;4994414;28;1241;-59
2023/10/20 03:25:57;;;;;;;;;;;;;;;9.44;100.00;99272.22;4994728;28;854;-59
2023/10/20 03:28:24;;;;;;;;;;;;;;;9.41;100.00;99273.84;4994525;28;847;-59
2023/10/20 03:30:52;;;;;;;;;;;;;;;9.35;100.00;99270.72;4994623;28;1910;-59
2023/10/20 03:33:20;;;;;;;;;;;;;;;9.23;100.00;99273.19;4994436;28;824;-59
2023/10/20 03:35:47;;;;;;;;;;;;;;;9.05;100.00;99271.34;4994336;28;842;-59
2023/10/20 03:38:14;;;;;;;;;;;;;;;8.90;100.00;99276.19;4994400;28;854;-59
2023/10/20 03:40:41;;;;;;;;;;;;;;;8.85;100.00;99270.31;4994419;28;816;-59
2023/10/20 03:43:08;;;;;;;;;;;;;;;8.76;100.00;99268.78;4994285;28;835;-59
2023/10/20 03:45:48;;;;;;;;;;;;;;;8.82;100.00;99269.13;4994181;28;808;-59
2023/10/20 03:48:15;;;;;;;;;;;;;;;8.90;100.00;99273.41;4994227;28;809;-59
2023/10/20 03:50:43;;;;;;;;;;;;;;;8.93;100.00;99267.09;4994120;28;1891;-59
2023/10/20 03:53:18;;;;;;;;;;;;;;;8.90;100.00;99258.88;4994065;28;890;-59
2023/10/20 03:55:45;;;;;;;;;;;;;;;8.88;100.00;99251.00;4994205;28;899;-59
2023/10/20 03:58:11;;;;;;;;;;;;;;;8.88;100.00;99262.03;4994218;28;834;-59
2023/10/20 04:00:41;;;;;;;;;;;;;;;8.83;100.00;99264.41;4993909;28;835;-59
2023/10/20 04:03:08;;;;;;;;;;;;;;;8.74;100.00;99265.63;4993781;28;831;-59
2023/10/20 04:05:35;;;;;;;;;;;;;;;8.72;100.00;99253.44;4994189;28;799;-59
2023/10/20 04:08:01;;;;;;;;;;;;;;;8.64;100.00;99262.94;4993737;28;898;-59
2023/10/20 04:10:30;;;;;;;;;;;;;;;8.62;100.00;99266.13;4993698;28;943;-59
2023/10/20 04:12:57;;;;;;;;;;;;;;;8.63;100.00;99255.88;4993524;28;1890;-59
2023/10/20 04:15:26;;;;;;;;;;;;;;;8.69;100.00;99251.53;4993677;28;942;-59
2023/10/20 04:17:52;;;;;;;;;;;;;;;8.74;100.00;99254.63;4993601;28;843;-59
2023/10/20 04:20:20;;;;;;;;;;;;;;;8.72;100.00;99256.22;4993471;28;864;-59
2023/10/20 04:22:50;;;;;;;;;;;;;;;8.68;100.00;99253.47;4993978;28;940;-59
2023/10/20 04:25:17;;;;;;;;;;;;;;;8.66;100.00;99255.84;4993386;28;1439;-59
2023/10/20 04:49:42;;;;;;;;;;;;;;;9.05;100.00;99267.81;4993245;28;862;-59
2023/10/20 05:02:46;;;;;;;;;;;;;;;9.55;100.00;99259.13;4992968;28;807;-59
2023/10/20 05:05:39;;;;;;;;;;;;;;;9.63;100.00;99266.13;4992860;28;862;-59
2023/10/20 05:08:23;;;;;;;;;;;;;;;9.71;100.00;99264.88;4992010;28;1128;-59
2023/10/20 05:10:45;;;;;;;;;;;;;;;9.84;100.00;99269.88;4991839;28;1910;-59
2023/10/20 05:13:11;;;;;;;;;;;;;;;9.91;100.00;99267.81;4992671;28;835;-60
2023/10/20 05:15:43;;;;;;;;;;;;;;;9.94;100.00;99277.25;4992682;28;863;-59
2023/10/20 05:18:12;;;;;;;;;;;;;;;9.97;100.00;99268.94;4992690;28;894;-60
2023/10/20 05:20:40;;;;;;;;;;;;;;;10.06;100.00;99273.19;4992509;28;985;-60
2023/10/20 05:23:07;;;;;;;;;;;;;;;10.13;100.00;99281.38;4992374;28;1248;-60
2023/10/20 05:25:34;;;;;;;;;;;;;;;10.21;100.00;99277.34;4992551;28;784;-60
2023/10/20 05:28:01;;;;;;;;;;;;;;;10.36;100.00;99276.00;4992763;28;850;-60
2023/10/20 05:30:27;;;;;;;;;;;;;;;10.54;100.00;99269.47;4992516;28;935;-60
2023/10/20 05:32:54;;;;;;;;;;;;;;;10.67;100.00;99273.25;4992329;28;1910;-60
2023/10/20 05:35:20;;;;;;;;;;;;;;;10.76;100.00;99270.75;4992455;28;862;-60
2023/10/20 05:37:47;;;;;;;;;;;;;;;10.81;100.00;99277.78;4992563;28;895;-59
2023/10/20 05:40:13;;;;;;;;;;;;;;;10.78;100.00;99271.09;4995540;28;811;-60
2023/10/20 05:42:40;;;;;;;;;;;;;;;10.72;100.00;99274.75;4996478;28;792;-59
2023/10/20 05:45:09;;;;;;;;;;;;;;;10.66;100.00;99276.41;4996546;28;895;-59
2023/10/20 05:47:36;;;;;;;;;;;;;;;10.61;100.00;99275.69;4996481;28;903;-60
2023/10/20 05:50:04;;;;;;;;;;;;;;;10.62;100.00;99280.03;4996357;28;841;-60
2023/10/20 05:52:31;;;;;;;;;;;;;;;10.68;100.00;99280.31;4996273;28;1882;-59
2023/10/20 05:54:59;;;;;;;;;;;;;;;10.92;100.00;99280.38;4996294;28;978;-60
2023/10/20 05:57:27;;;;;;;;;;;;;;;11.10;100.00;99280.91;4978733;28;1318;-59
2023/10/20 05:59:54;;;;;;;;;;;;;;;11.22;100.00;99283.09;4996249;28;803;-60
2023/10/20 06:02:20;;;;;;;;;;;;;;;11.44;100.00;99274.44;4996124;28;890;-59
2023/10/20 06:04:47;;;;;;;;;;;;;;;11.80;100.00;99273.81;4995969;28;831;-59
2023/10/20 06:07:14;;;;;;;;;;;;;;;12.17;100.00;99281.03;4996144;28;764;-59
2023/10/20 06:09:42;;;;;;;;;;;;;;;12.48;100.00;99275.25;4995987;28;847;-59
2023/10/20 06:12:10;;;;;;;;;;;;;;;12.79;100.00;99275.78;4995913;28;1910;-59
2023/10/20 06:14:37;;;;;;;;;;;;;;;13.16;100.00;99268.19;4995871;28;879;-59
2023/10/20 06:17:03;;;;;;;;;;;;;;;13.55;100.00;99265.69;4996057;28;870;-59
2023/10/20 06:19:31;;;;;;;;;;;;;;;13.99;100.00;99261.34;4995888;28;867;-59
2023/10/20 06:21:58;;;;;;;;;;;;;;;14.45;100.00;99256.47;4995913;28;1053;-59
2023/10/20 06:24:24;;;;;;;;;;;;;;;14.95;100.00;99264.56;4995482;28;1041;-60
2023/10/20 06:26:51;;;;;;;;;;;;;;;15.41;100.00;99265.84;4995682;28;804;-60
2023/10/20 06:32:08;;;;;;;;;;;;;;;15.98;100.00;99265.13;4995370;28;1977;-60
2023/10/20 06:34:40;;;;;;;;;;;;;;;15.98;100.00;99256.78;4995548;28;906;-59
2023/10/20 06:37:13;;;;;;;;;;;;;;;15.66;100.00;99253.88;4995750;28;890;-59
2023/10/20 06:39:40;;;;;;;;;;;;;;;15.53;100.00;99261.47;4995420;28;886;-59
2023/10/20 06:42:09;;;;;;;;;;;;;;;15.35;100.00;99261.28;4995490;28;1265;-60
2023/10/20 06:44:35;;;;;;;;;;;;;;;15.25;100.00;99261.19;4995447;28;864;-59
2023/10/20 06:47:01;;;;;;;;;;;;;;;15.38;100.00;99263.94;4995675;28;945;-59
2023/10/20 06:49:28;;;;;;;;;;;;;;;15.46;100.00;99265.25;4995341;28;926;-58
2023/10/20 06:51:54;;;;;;;;;;;;;;;15.49;100.00;99264.38;4994056;28;1894;-59
2023/10/20 06:54:21;;;;;;;;;;;;;;;15.37;100.00;99267.19;4995122;28;906;-59
2023/10/20 06:56:47;;;;;;;;;;;;;;;15.27;100.00;99258.72;4995107;28;867;-60
2023/10/20 06:59:14;;;;;;;;;;;;;;;15.32;100.00;99262.97;4994963;28;894;-60
2023/10/20 07:01:41;;;;;;;;;;;;;;;15.58;100.00;99260.13;4994901;28;859;-59
2023/10/20 07:04:11;;;;;;;;;;;;;;;15.95;100.00;99266.81;4977512;28;1253;-59
2023/10/20 07:06:37;;;;;;;;;;;;;;;16.31;100.00;99265.53;4995657;28;808;-59
2023/10/20 07:09:14;;;;;;;;;;;;;;;16.51;100.00;99252.03;4995109;28;891;-59
2023/10/20 07:11:41;;;;;;;;;;;;;;;16.67;100.00;99261.41;4994726;28;1887;-59
2023/10/20 07:14:10;;;;;;;;;;;;;;;16.62;100.00;99260.00;4995064;28;850;-58
2023/10/20 07:16:36;;;;;;;;;;;;;;;16.66;100.00;99271.78;4994687;28;845;-59
2023/10/20 07:19:03;;;;;;;;;;;;;;;16.66;100.00;99257.03;4994989;28;835;-59
2023/10/20 07:21:30;;;;;;;;;;;;;;;16.73;100.00;99260.34;4994802;28;902;-58
2023/10/20 07:23:57;;;;;;;;;;;;;;;17.05;100.00;99257.56;4973722;28;1267;-58
2023/10/20 07:26:24;;;;;;;;;;;;;;;17.14;100.00;99257.59;4973795;28;1303;-59
2023/10/20 07:28:50;;;;;;;;;;;;;;;17.29;100.00;99252.97;4973854;28;1267;-58
2023/10/20 07:31:21;;;;;;;;;;;;;;;17.73;100.00;99251.94;4974957;28;1919;-59
2023/10/20 07:33:50;;;;;;;;;;;;;;;18.04;100.00;99240.63;4975077;28;874;-59
2023/10/20 07:36:17;;;;;;;;;;;;;;;17.97;100.00;99242.97;4974954;28;835;-59
2023/10/20 07:38:44;;;;;;;;;;;;;;;17.94;100.00;99245.47;4974906;28;859;-59
2023/10/20 07:41:11;;;;;;;;;;;;;;;17.88;100.00;99244.53;4974800;28;891;-59
2023/10/20 07:43:38;;;;;;;;;;;;;;;17.96;100.00;99242.19;4974906;28;817;-59
2023/10/20 07:46:05;;;;;;;;;;;;;;;17.83;100.00;99236.75;4974830;28;874;-59
2023/10/20 07:48:34;;;;;;;;;;;;;;;17.85;100.00;99241.88;4974981;28;805;-59
2023/10/20 07:51:01;;;;;;;;;;;;;;;17.78;100.00;99244.97;4974679;28;1952;-59
2023/10/20 07:53:30;;;;;;;;;;;;;;;18.00;100.00;99253.22;4974870;28;833;-59
2023/10/20 07:55:57;;;;;;;;;;;;;;;17.91;100.00;99245.63;4973414;28;1217;-59
2023/10/20 07:58:24;;;;;;;;;;;;;;;17.90;100.00;99247.66;4974577;28;820;-59
2023/10/20 08:00:51;;;;;;;;;;;;;;;18.16;100.00;99250.09;4974473;28;799;-58
2023/10/20 08:03:17;;;;;;;;;;;;;;;18.45;100.00;99248.81;4974273;28;819;-59
2023/10/20 08:05:44;;;;;;;;;;;;;;;18.43;100.00;99246.47;4973192;28;918;-59
2023/10/20 08:08:11;;;;;;;;;;;;;;;18.42;100.00;99249.75;4974434;28;847;-59
2023/10/20 08:10:38;;;;;;;;;;;;;;;18.28;100.00;99256.75;4974600;28;869;-59
2023/10/20 08:13:04;;;;;;;;;;;;;;;18.24;100.00;99259.72;4974375;28;1898;-59
2023/10/20 08:15:37;;;;;;;;;;;;;;;18.46;100.00;99251.13;4974186;28;911;-59
2023/10/20 08:18:04;;;;;;;;;;;;;;;18.48;100.00;99254.25;4974334;28;807;-59
2023/10/20 08:20:31;;;;;;;;;;;;;;;18.57;100.00;99245.81;4974065;28;892;-59
2023/10/20 08:22:57;;;;;;;;;;;;;;;18.74;100.00;99248.25;4974206;28;1269;-59
2023/10/20 08:25:24;;;;;;;;;;;;;;;18.82;100.00;99245.91;4993615;28;858;-59
2023/10/20 08:27:50;;;;;;;;;;;;;;;18.90;100.00;99244.31;4993589;28;819;-59
2023/10/20 08:30:19;;;;;;;;;;;;;;;19.03;100.00;99232.91;4993563;28;821;-59
2023/10/20 08:32:45;;;;;;;;;;;;;;;18.85;100.00;99234.53;4993366;28;1906;-59
2023/10/20 08:35:14;;;;;;;;;;;;;;;19.06;100.00;99229.16;4993325;28;914;-59
2023/10/20 08:37:41;;;;;;;;;;;;;;;19.23;100.00;99235.16;4993367;28;923;-58
2023/10/20 08:40:10;;;;;;;;;;;;;;;19.41;100.00;99234.25;4993227;28;903;-59
2023/10/20 08:42:39;;;;;;;;;;;;;;;19.58;100.00;99235.38;4993042;28;958;-58
2023/10/20 08:45:11;;;;;;;;;;;;;;;19.98;100.00;99237.72;4975639;28;751;-59
2023/10/20 08:47:38;;;;;;;;;;;;;;;20.05;100.00;99230.19;4993045;28;848;-58
2023/10/20 08:50:07;;;;;;;;;;;;;;;20.21;100.00;99243.75;4993073;28;853;-58
2023/10/20 09:21:42;;;;;;;;;;;;;;;20.89;100.00;99226.03;5885104;23;1711;-73
2023/10/20 09:24:11;;;;;;;;;;;;;;;21.03;100.00;99224.44;4953940;28;830;-73
2023/10/20 09:26:39;;;;;;;;;;;;;;;21.04;100.00;99228.00;4952647;28;1121;-71
2023/10/20 09:29:06;;;;;;;;;;;;;;;21.12;100.00;99227.13;4954010;28;818;-69
2023/10/20 09:31:34;;;;;;;;;;;;;;;21.11;100.00;99219.19;4953946;28;1922;-72
2023/10/20 09:34:00;;;;;;;;;;;;;;;21.08;100.00;99211.72;4953924;28;854;-73
2023/10/20 09:36:31;;;;;;;;;;;;;;;21.03;100.00;99218.81;4953691;28;827;-69
2023/10/20 09:39:00;;;;;;;;;;;;;;;21.27;100.00;99218.63;4953852;28;1202;-71
2023/10/20 09:41:28;;;;;;;;;;;;;;;21.38;100.00;99223.66;4953969;28;902;-72
2023/10/20 09:44:07;;;;;;;;;;;;;;;21.36;100.00;99212.13;4953754;28;807;-69
2023/10/20 09:46:55;;;;;;;;;;;;;;;21.49;100.00;99214.63;4953785;28;811;-72
2023/10/20 09:49:25;;;;;;;;;;;;;;;21.67;100.00;99207.91;4953686;28;882;-73
2023/10/20 09:51:54;;;;;;;;;;;;;;;21.79;100.00;99195.53;4954008;29;1949;-67
2023/10/20 09:54:25;;;;;;;;;;;;;;;21.84;100.00;99214.50;4953693;28;844;-70
2023/10/20 09:56:52;;;;;;;;;;;;;;;22.09;100.00;99181.25;4968373;28;1158;-66
2023/10/20 09:59:21;;;;;;;;;;;;;;;22.13;100.00;99199.47;4953677;28;800;-72
2023/10/20 10:01:48;;;;;;;;;;;;;;;22.23;100.00;99197.25;4953611;28;827;-69
2023/10/20 10:04:36;;;;;;;;;;;;;;;22.11;100.00;99193.56;4953603;28;815;-66
2023/10/20 10:07:04;;;;;;;;;;;;;;;22.06;100.00;99199.13;4953545;28;879;-73
2023/10/20 10:09:48;;;;;;;;;;;;;;;22.33;100.00;99184.56;4953591;28;898;-70
2023/10/20 10:12:20;;;;;;;;;;;;;;;22.51;100.00;99188.28;4953461;28;1915;-70
2023/10/20 10:15:06;;;;;;;;;;;;;;;22.51;100.00;99183.44;4953632;28;847;-68
2023/10/20 10:17:54;;;;;;;;;;;;;;;22.67;100.00;99176.38;4953398;28;1219;-70
2023/10/20 10:20:20;;;;;;;;;;;;;;;22.71;100.00;99176.16;4953511;28;918;-67
2023/10/20 10:22:47;;;;;;;;;;;;;;;22.89;100.00;99160.91;4979207;28;1298;-72
2023/10/20 10:25:14;;;;;;;;;;;;;;;23.06;100.00;99158.97;4993186;28;811;-71
2023/10/20 10:27:40;;;;;;;;;;;;;;;22.84;100.00;99156.78;4995757;28;819;-72
2023/10/20 10:30:08;;;;;;;;;;;;;;;22.89;100.00;99146.81;4995832;28;906;-69
2023/10/20 10:32:50;;;;;;;;;;;;;;;22.93;100.00;99142.47;4995654;28;1938;-71
2023/10/20 10:35:16;;;;;;;;;;;;;;;23.09;100.00;99141.06;4978176;28;1260;-71
2023/10/20 10:37:44;;;;;;;;;;;;;;;23.07;100.00;99134.41;4995474;28;843;-69
2023/10/20 10:40:12;;;;;;;;;;;;;;;23.35;100.00;99132.44;4978013;28;1339;-70
2023/10/20 10:42:39;;;;;;;;;;;;;;;23.37;100.00;99135.53;4995588;28;827;-71
2023/10/20 10:45:14;;;;;;;;;;;;;;;23.39;100.00;99126.56;4995249;28;797;-68
2023/10/20 10:47:41;;;;;;;;;;;;;;;23.64;100.00;99110.72;4995421;28;875;-72
2023/10/20 10:50:08;;;;;;;;;;;;;;;23.78;100.00;99115.41;4995192;28;934;-70
2023/10/20 10:52:35;;;;;;;;;;;;;;;23.92;100.00;99108.00;4995165;28;1890;-69
2023/10/20 10:55:00;;;;;;;;;;;;;;;24.10;100.00;99106.72;4995197;28;847;-68
2023/10/20 10:57:26;;;;;;;;;;;;;;;23.83;100.00;99103.38;4995228;28;878;-73
2023/10/20 10:59:53;;;;;;;;;;;;;;;23.91;100.00;99116.97;4995409;28;811;-73
2023/10/20 11:02:20;;;;;;;;;;;;;;;24.07;100.00;99115.44;4977656;28;1486;-72
2023/10/20 11:04:46;;;;;;;;;;;;;;;24.33;100.00;99106.72;4994979;28;930;-69
2023/10/20 11:07:13;;;;;;;;;;;;;;;24.65;100.00;99101.56;4995098;28;863;-69
2023/10/20 11:09:41;;;;;;;;;;;;;;;24.61;94.83;99109.53;4995207;28;900;-69
2023/10/20 11:12:13;;;;;;;;;;;;;;;24.58;93.65;99091.56;4994751;28;1915;-68
2023/10/20 11:14:39;;;;;;;;;;;;;;;24.49;92.90;99105.94;4994859;28;870;-69
2023/10/20 11:17:06;;;;;;;;;;;;;;;24.55;92.40;99108.75;4994732;28;811;-69
2023/10/20 11:19:34;;;;;;;;;;;;;;;24.75;91.17;99102.03;4994788;28;803;-69
2023/10/20 11:22:01;;;;;;;;;;;;;;;24.97;89.10;99106.84;4994446;28;1386;-66
2023/10/20 11:24:35;;;;;;;;;;;;;;;24.94;78.97;99099.41;4977191;28;1324;-68
2023/10/20 11:27:11;;;;;;;;;;;;;;;24.95;78.42;99110.19;4977080;28;1233;-69
2023/10/20 11:29:38;;;;;;;;;;;;;;;25.04;78.18;99104.25;4994581;28;843;-68
2023/10/20 11:32:08;;;;;;;;;;;;;;;25.35;77.13;99104.38;4994428;28;1918;-65
2023/10/20 11:34:35;;;;;;;;;;;;;;;25.25;77.09;99109.59;4994318;28;910;-65
2023/10/20 11:37:02;;;;;;;;;;;;;;;25.20;77.47;99099.84;4993907;28;799;-67
2023/10/20 11:39:30;;;;;;;;;;;;;;;25.41;77.03;99102.31;4994386;28;831;-65
2023/10/20 11:41:56;;;;;;;;;;;;;;;25.50;76.53;99101.22;4994351;28;898;-67
2023/10/20 11:44:26;;;;;;;;;;;;;;;25.77;76.25;99099.53;4994172;28;883;-66
2023/10/20 11:46:53;;;;;;;;;;;;;;;26.25;74.38;99098.16;4994192;28;905;-67
2023/10/20 11:49:27;;;;;;;;;;;;;;;26.20;69.03;99096.91;4994087;28;855;-68
2023/10/20 11:51:55;;;;;;;;;;;;;;;26.16;67.91;99104.13;4994212;28;1887;-67
2023/10/20 11:54:21;;;;;;;;;;;;;;;26.01;68.12;99099.63;4994014;28;870;-66
2023/10/20 11:56:48;;;;;;;;;;;;;;;26.25;67.77;99106.66;4993953;28;921;-64
2023/10/20 11:59:19;;;;;;;;;;;;;;;26.39;67.32;99111.13;4994060;28;904;-67
2023/10/20 12:01:46;;;;;;;;;;;;;;;26.20;67.30;99098.94;4994315;28;780;-66
2023/10/20 12:04:13;;;;;;;;;;;;;;;26.06;67.77;99104.47;4993902;28;1230;-68
2023/10/20 12:06:39;;;;;;;;;;;;;;;26.24;67.11;99100.22;4993793;28;1209;-69
2023/10/20 12:09:10;;;;;;;;;;;;;;;26.53;66.64;99091.44;4976312;28;1305;-64
2023/10/20 12:11:38;;;;;;;;;;;;;;;26.64;65.44;99091.34;4993660;28;1957;-66
2023/10/20 12:14:04;;;;;;;;;;;;;;;26.49;64.71;99091.72;4993634;28;882;-68
2023/10/20 12:16:31;;;;;;;;;;;;;;;26.64;63.80;99092.13;4993658;28;835;-66
2023/10/20 12:25:11;;;;;;;;;;;;;;;26.63;62.84;99075.66;5009556;28;1365;-65
2023/10/20 12:27:37;;;;;;;;;;;;;;;27.07;62.66;99084.94;5012997;28;918;-65
2023/10/20 12:30:05;;;;;;;;;;;;;;;27.33;59.75;99086.44;5013016;28;806;-67
2023/10/20 12:32:31;;;;;;;;;;;;;;;27.16;58.63;99087.41;5012900;28;1918;-67
2023/10/20 12:34:58;;;;;;;;;;;;;;;26.96;58.51;99088.66;5012808;28;830;-68
2023/10/20 12:37:25;;;;;;;;;;;;;;;26.82;59.40;99084.19;5012887;28;802;-67
2023/10/20 12:39:52;;;;;;;;;;;;;;;26.65;59.42;99088.00;5012744;28;916;-66
2023/10/20 12:42:18;;;;;;;;;;;;;;;26.73;60.04;99084.56;5012818;28;823;-69
2023/10/20 12:44:45;;;;;;;;;;;;;;;26.52;59.85;99090.66;5012636;28;828;-64
2023/10/20 12:47:12;;;;;;;;;;;;;;;26.20;61.05;99079.91;5012602;28;815;-68
2023/10/20 12:49:39;;;;;;;;;;;;;;;26.16;61.12;99081.47;5011858;28;870;-64
2023/10/20 12:52:05;;;;;;;;;;;;;;;26.61;60.86;99089.59;5012552;28;1894;-66
2023/10/20 12:54:32;;;;;;;;;;;;;;;27.07;59.79;99082.09;5012566;28;822;-64
2023/10/20 12:57:00;;;;;;;;;;;;;;;27.41;58.85;99081.69;5012528;28;918;-64
2023/10/20 12:59:27;;;;;;;;;;;;;;;27.27;58.62;99090.13;5012514;28;878;-65
2023/10/20 13:01:53;;;;;;;;;;;;;;;26.71;59.62;99087.91;5012378;28;901;-68
2023/10/20 13:04:20;;;;;;;;;;;;;;;26.41;60.25;99083.03;5012366;28;907;-68
2023/10/20 13:06:47;;;;;;;;;;;;;;;26.58;60.13;99080.06;5012375;28;865;-70
2023/10/20 13:09:13;;;;;;;;;;;;;;;26.85;59.97;99078.22;5012467;28;835;-68
2023/10/20 13:11:40;;;;;;;;;;;;;;;27.35;58.96;99083.81;5012285;28;1894;-65
2023/10/20 13:14:08;;;;;;;;;;;;;;;27.24;58.50;99081.91;5012281;28;805;-68
2023/10/20 13:16:33;;;;;;;;;;;;;;;26.85;59.15;99077.47;5012224;28;798;-72
2023/10/20 13:19:01;;;;;;;;;;;;;;;26.54;59.82;99079.56;5012099;28;842;-66
2023/10/20 13:21:29;;;;;;;;;;;;;;;26.84;59.81;99073.09;4994769;28;1358;-68
2023/10/20 13:23:57;;;;;;;;;;;;;;;27.32;58.95;99076.41;5011875;28;1274;-71
2023/10/20 13:26:23;;;;;;;;;;;;;;;27.32;58.90;99079.25;5012146;28;874;-68
2023/10/20 13:28:50;;;;;;;;;;;;;;;27.25;57.92;99077.78;5012054;28;853;-70
2023/10/20 13:31:21;;;;;;;;;;;;;;;27.17;58.36;99069.06;5012107;28;1918;-67
2023/10/20 13:33:48;;;;;;;;;;;;;;;27.09;58.40;99071.75;5012009;28;928;-68
2023/10/20 13:36:14;;;;;;;;;;;;;;;27.17;58.78;99074.75;5012089;28;799;-64
2023/10/20 13:38:43;;;;;;;;;;;;;;;27.31;58.22;99072.00;5011945;28;850;-63
2023/10/20 13:41:09;;;;;;;;;;;;;;;27.09;58.28;99068.91;4994339;28;1294;-66
2023/10/20 13:43:36;;;;;;;;;;;;;;;26.84;59.08;99070.25;5012076;28;858;-64
2023/10/20 13:46:02;;;;;;;;;;;;;;;26.80;59.13;99069.78;5012078;28;842;-64
2023/10/20 13:48:29;;;;;;;;;;;;;;;26.76;59.35;99075.00;5011885;28;818;-65
2023/10/20 13:50:55;;;;;;;;;;;;;;;26.85;59.33;99072.56;5011871;28;866;-66
2023/10/20 13:53:21;;;;;;;;;;;;;;;26.80;59.10;99075.44;5011810;28;922;-67
2023/10/20 13:55:48;;;;;;;;;;;;;;;26.26;60.24;99077.78;5011809;28;925;-65
2023/10/20 13:58:14;;;;;;;;;;;;;;;25.82;61.66;99074.00;5011801;28;866;-67
2023/10/20 14:00:41;;;;;;;;;;;;;;;25.53;62.78;99069.06;5013856;28;838;-67
2023/10/20 14:03:07;;;;;;;;;;;;;;;25.37;63.53;99071.50;5015728;28;902;-69
2023/10/20 14:05:34;;;;;;;;;;;;;;;25.39;63.87;99074.56;5015703;28;873;-66
2023/10/20 14:08:01;;;;;;;;;;;;;;;25.43;62.98;99075.06;5015550;28;858;-67
2023/10/20 14:10:28;;;;;;;;;;;;;;;25.52;62.53;99076.00;5015630;28;870;-66
2023/10/20 14:12:54;;;;;;;;;;;;;;;25.63;62.52;99075.97;5015611;28;1910;-62
2023/10/20 14:15:20;;;;;;;;;;;;;;;25.75;62.33;99079.47;5015509;28;874;-64